sensor_id;sensor_type;location;lat;lon;timestamp;temperature;humidity
15394;DHT22;7795;47.986;11.868;2023-03-23T00:01:47;11.40;61.90
15394;DHT22;7795;47.986;11.868;2023-03-23T00:04:15;11.40;62.00
15394;DHT22;7795;47.986;11.868;2023-03-23T00:06:41;11.40;61.80
15394;DHT22;7795;47.986;11.868;2023-03-23T00:09:09;11.30;61.70
15394;DHT22;7795;47.986;11.868;2023-03-23T00:11:35;11.30;61.60
15394;DHT22;7795;47.986;11.868;2023-03-23T00:14:01;11.20;61.60
15394;DHT22;7795;47.986;11.868;2023-03-23T00:16:29;11.10;61.90
15394;DHT22;7795;47.986;11.868;2023-03-23T00:18:58;11.10;62.10
15394;DHT22;7795;47.986;11.868;2023-03-23T00:21:25;11.00;62.30
15394;DHT22;7795;47.986;11.868;2023-03-23T00:24:02;11.00;62.30
15394;DHT22;7795;47.986;11.868;2023-03-23T00:26:29;11.00;62.30
15394;DHT22;7795;47.986;11.868;2023-03-23T00:28:59;11.00;62.50
15394;DHT22;7795;47.986;11.868;2023-03-23T00:31:26;11.00;62.70
15394;DHT22;7795;47.986;11.868;2023-03-23T00:33:59;11.00;62.80
15394;DHT22;7795;47.986;11.868;2023-03-23T00:36:29;11.00;63.10
15394;DHT22;7795;47.986;11.868;2023-03-23T00:38:55;11.00;63.00
15394;DHT22;7795;47.986;11.868;2023-03-23T00:41:25;10.90;63.10
15394;DHT22;7795;47.986;11.868;2023-03-23T00:43:55;11.00;63.20
15394;DHT22;7795;47.986;11.868;2023-03-23T00:46:22;11.00;63.20
15394;DHT22;7795;47.986;11.868;2023-03-23T00:48:48;11.00;63.20
15394;DHT22;7795;47.986;11.868;2023-03-23T00:51:17;10.90;63.20
15394;DHT22;7795;47.986;11.868;2023-03-23T00:53:43;10.90;63.20
15394;DHT22;7795;47.986;11.868;2023-03-23T00:56:09;10.90;63.10
15394;DHT22;7795;47.986;11.868;2023-03-23T00:58:35;10.90;63.20
15394;DHT22;7795;47.986;11.868;2023-03-23T01:01:01;10.80;63.20
15394;DHT22;7795;47.986;11.868;2023-03-23T01:03:27;10.80;63.10
15394;DHT22;7795;47.986;11.868;2023-03-23T01:05:54;10.80;63.20
15394;DHT22;7795;47.986;11.868;2023-03-23T01:08:22;10.80;63.50
15394;DHT22;7795;47.986;11.868;2023-03-23T01:10:49;10.70;63.60
15394;DHT22;7795;47.986;11.868;2023-03-23T01:13:16;10.70;63.60
15394;DHT22;7795;47.986;11.868;2023-03-23T01:15:42;10.70;63.80
15394;DHT22;7795;47.986;11.868;2023-03-23T01:18:09;10.70;63.90
15394;DHT22;7795;47.986;11.868;2023-03-23T01:20:35;10.70;64.10
15394;DHT22;7795;47.986;11.868;2023-03-23T01:23:01;10.70;64.10
15394;DHT22;7795;47.986;11.868;2023-03-23T01:25:30;10.70;64.10
15394;DHT22;7795;47.986;11.868;2023-03-23T01:27:56;10.70;64.40
15394;DHT22;7795;47.986;11.868;2023-03-23T01:30:23;10.70;64.20
15394;DHT22;7795;47.986;11.868;2023-03-23T01:32:49;10.70;64.30
15394;DHT22;7795;47.986;11.868;2023-03-23T01:35:15;10.70;64.30
15394;DHT22;7795;47.986;11.868;2023-03-23T01:37:41;10.70;65.30
15394;DHT22;7795;47.986;11.868;2023-03-23T01:40:08;10.70;64.50
15394;DHT22;7795;47.986;11.868;2023-03-23T01:42:37;10.70;64.60
15394;DHT22;7795;47.986;11.868;2023-03-23T01:45:26;10.70;64.90
15394;DHT22;7795;47.986;11.868;2023-03-23T01:47:59;10.70;65.60
15394;DHT22;7795;47.986;11.868;2023-03-23T01:50:28;10.70;64.90
15394;DHT22;7795;47.986;11.868;2023-03-23T01:52:58;10.70;64.80
15394;DHT22;7795;47.986;11.868;2023-03-23T01:55:26;10.70;65.10
15394;DHT22;7795;47.986;11.868;2023-03-23T01:57:55;10.70;65.10
15394;DHT22;7795;47.986;11.868;2023-03-23T02:00:23;10.70;65.20
15394;DHT22;7795;47.986;11.868;2023-03-23T02:02:51;10.80;65.20
15394;DHT22;7795;47.986;11.868;2023-03-23T02:05:24;10.80;65.20
15394;DHT22;7795;47.986;11.868;2023-03-23T02:07:53;10.80;65.30
15394;DHT22;7795;47.986;11.868;2023-03-23T02:10:19;10.80;65.20
15394;DHT22;7795;47.986;11.868;2023-03-23T02:12:45;10.80;65.20
15394;DHT22;7795;47.986;11.868;2023-03-23T02:15:12;10.80;65.30
15394;DHT22;7795;47.986;11.868;2023-03-23T02:17:43;10.80;65.40
15394;DHT22;7795;47.986;11.868;2023-03-23T02:20:23;10.80;65.60
15394;DHT22;7795;47.986;11.868;2023-03-23T02:23:19;10.80;65.70
15394;DHT22;7795;47.986;11.868;2023-03-23T02:26:03;10.80;65.90
15394;DHT22;7795;47.986;11.868;2023-03-23T02:28:56;10.80;65.80
15394;DHT22;7795;47.986;11.868;2023-03-23T02:31:45;10.80;65.80
15394;DHT22;7795;47.986;11.868;2023-03-23T02:34:28;10.80;66.10
15394;DHT22;7795;47.986;11.868;2023-03-23T02:36:58;10.80;65.80
15394;DHT22;7795;47.986;11.868;2023-03-23T02:39:28;10.80;65.30
15394;DHT22;7795;47.986;11.868;2023-03-23T02:41:58;10.80;65.40
15394;DHT22;7795;47.986;11.868;2023-03-23T02:44:27;10.70;65.40
15394;DHT22;7795;47.986;11.868;2023-03-23T02:46:56;10.70;65.50
15394;DHT22;7795;47.986;11.868;2023-03-23T02:49:25;10.70;65.50
15394;DHT22;7795;47.986;11.868;2023-03-23T02:51:53;10.70;65.70
15394;DHT22;7795;47.986;11.868;2023-03-23T02:54:23;10.70;65.70
15394;DHT22;7795;47.986;11.868;2023-03-23T02:56:52;10.70;65.80
15394;DHT22;7795;47.986;11.868;2023-03-23T02:59:18;10.70;65.90
15394;DHT22;7795;47.986;11.868;2023-03-23T03:02:05;10.70;65.90
15394;DHT22;7795;47.986;11.868;2023-03-23T03:04:34;10.70;66.70
15394;DHT22;7795;47.986;11.868;2023-03-23T03:07:14;10.60;65.90
15394;DHT22;7795;47.986;11.868;2023-03-23T03:09:46;10.70;66.40
15394;DHT22;7795;47.986;11.868;2023-03-23T03:12:23;10.60;66.00
15394;DHT22;7795;47.986;11.868;2023-03-23T03:14:58;10.60;66.20
15394;DHT22;7795;47.986;11.868;2023-03-23T03:17:26;10.60;66.20
15394;DHT22;7795;47.986;11.868;2023-03-23T03:19:57;10.60;66.10
15394;DHT22;7795;47.986;11.868;2023-03-23T03:22:26;10.60;66.40
15394;DHT22;7795;47.986;11.868;2023-03-23T03:24:58;10.60;67.10
15394;DHT22;7795;47.986;11.868;2023-03-23T03:27:26;10.60;66.50
15394;DHT22;7795;47.986;11.868;2023-03-23T03:29:55;10.60;66.50
15394;DHT22;7795;47.986;11.868;2023-03-23T03:32:25;10.60;66.60
15394;DHT22;7795;47.986;11.868;2023-03-23T03:34:59;10.60;66.50
15394;DHT22;7795;47.986;11.868;2023-03-23T03:37:25;10.50;66.50
15394;DHT22;7795;47.986;11.868;2023-03-23T03:39:51;10.50;66.40
15394;DHT22;7795;47.986;11.868;2023-03-23T03:42:17;10.50;66.40
15394;DHT22;7795;47.986;11.868;2023-03-23T03:44:43;10.50;67.20
15394;DHT22;7795;47.986;11.868;2023-03-23T03:47:09;10.50;66.60
15394;DHT22;7795;47.986;11.868;2023-03-23T03:49:35;10.50;66.80
15394;DHT22;7795;47.986;11.868;2023-03-23T03:52:02;10.50;66.80
15394;DHT22;7795;47.986;11.868;2023-03-23T03:54:28;10.50;66.90
15394;DHT22;7795;47.986;11.868;2023-03-23T03:56:54;10.50;66.80
15394;DHT22;7795;47.986;11.868;2023-03-23T03:59:23;10.50;66.80
15394;DHT22;7795;47.986;11.868;2023-03-23T04:01:49;10.50;66.80
15394;DHT22;7795;47.986;11.868;2023-03-23T04:04:19;10.50;66.80
15394;DHT22;7795;47.986;11.868;2023-03-23T04:06:46;10.50;66.80
15394;DHT22;7795;47.986;11.868;2023-03-23T04:09:15;10.50;66.80
15394;DHT22;7795;47.986;11.868;2023-03-23T04:11:41;10.50;66.90
15394;DHT22;7795;47.986;11.868;2023-03-23T04:14:07;10.50;66.90
15394;DHT22;7795;47.986;11.868;2023-03-23T04:16:33;10.50;66.90
15394;DHT22;7795;47.986;11.868;2023-03-23T04:19:01;10.50;66.90
15394;DHT22;7795;47.986;11.868;2023-03-23T04:21:27;10.40;66.80
15394;DHT22;7795;47.986;11.868;2023-03-23T04:23:54;10.40;66.90
15394;DHT22;7795;47.986;11.868;2023-03-23T04:26:21;10.40;66.80
15394;DHT22;7795;47.986;11.868;2023-03-23T04:28:47;10.40;67.10
15394;DHT22;7795;47.986;11.868;2023-03-23T04:31:15;10.30;67.00
15394;DHT22;7795;47.986;11.868;2023-03-23T04:33:41;10.30;66.90
15394;DHT22;7795;47.986;11.868;2023-03-23T04:36:07;10.30;67.00
15394;DHT22;7795;47.986;11.868;2023-03-23T04:38:33;10.30;67.10
15394;DHT22;7795;47.986;11.868;2023-03-23T04:41:00;10.20;67.10
15394;DHT22;7795;47.986;11.868;2023-03-23T04:43:29;10.20;67.20
15394;DHT22;7795;47.986;11.868;2023-03-23T04:45:55;10.20;67.50
15394;DHT22;7795;47.986;11.868;2023-03-23T04:48:22;10.20;67.50
15394;DHT22;7795;47.986;11.868;2023-03-23T04:50:48;10.20;67.50
15394;DHT22;7795;47.986;11.868;2023-03-23T04:53:17;10.10;67.40
15394;DHT22;7795;47.986;11.868;2023-03-23T04:55:44;10.20;67.50
15394;DHT22;7795;47.986;11.868;2023-03-23T04:58:11;10.10;67.60
15394;DHT22;7795;47.986;11.868;2023-03-23T05:00:41;10.10;67.60
15394;DHT22;7795;47.986;11.868;2023-03-23T05:03:09;10.10;67.60
15394;DHT22;7795;47.986;11.868;2023-03-23T05:05:35;10.00;67.50
15394;DHT22;7795;47.986;11.868;2023-03-23T05:08:01;10.00;67.60
15394;DHT22;7795;47.986;11.868;2023-03-23T05:10:27;9.90;67.60
15394;DHT22;7795;47.986;11.868;2023-03-23T05:12:53;9.90;67.70
15394;DHT22;7795;47.986;11.868;2023-03-23T05:15:19;9.90;67.90
15394;DHT22;7795;47.986;11.868;2023-03-23T05:17:47;9.90;68.10
15394;DHT22;7795;47.986;11.868;2023-03-23T05:20:15;9.90;68.20
15394;DHT22;7795;47.986;11.868;2023-03-23T05:22:45;9.80;68.30
15394;DHT22;7795;47.986;11.868;2023-03-23T05:25:13;9.90;68.40
15394;DHT22;7795;47.986;11.868;2023-03-23T05:27:39;9.90;68.50
15394;DHT22;7795;47.986;11.868;2023-03-23T05:30:09;9.80;68.40
15394;DHT22;7795;47.986;11.868;2023-03-23T05:32:37;9.80;68.50
15394;DHT22;7795;47.986;11.868;2023-03-23T05:35:04;9.80;68.60
15394;DHT22;7795;47.986;11.868;2023-03-23T05:37:30;9.80;69.00
15394;DHT22;7795;47.986;11.868;2023-03-23T05:39:59;9.80;68.90
15394;DHT22;7795;47.986;11.868;2023-03-23T05:42:31;9.90;69.10
15394;DHT22;7795;47.986;11.868;2023-03-23T05:45:07;9.80;69.20
15394;DHT22;7795;47.986;11.868;2023-03-23T05:47:37;9.90;69.50
15394;DHT22;7795;47.986;11.868;2023-03-23T05:50:06;9.90;69.40
15394;DHT22;7795;47.986;11.868;2023-03-23T05:52:32;9.90;69.60
15394;DHT22;7795;47.986;11.868;2023-03-23T05:55:01;10.00;69.50
15394;DHT22;7795;47.986;11.868;2023-03-23T05:57:29;9.90;69.60
15394;DHT22;7795;47.986;11.868;2023-03-23T05:59:55;10.00;70.40
15394;DHT22;7795;47.986;11.868;2023-03-23T06:02:23;10.00;69.50
15394;DHT22;7795;47.986;11.868;2023-03-23T06:04:49;10.00;69.40
15394;DHT22;7795;47.986;11.868;2023-03-23T06:07:17;10.00;69.40
15394;DHT22;7795;47.986;11.868;2023-03-23T06:09:43;10.00;69.40
15394;DHT22;7795;47.986;11.868;2023-03-23T06:12:09;10.00;69.40
15394;DHT22;7795;47.986;11.868;2023-03-23T06:14:35;10.10;69.50
15394;DHT22;7795;47.986;11.868;2023-03-23T06:17:09;10.10;69.70
15394;DHT22;7795;47.986;11.868;2023-03-23T06:19:38;10.20;69.80
15394;DHT22;7795;47.986;11.868;2023-03-23T06:22:04;10.20;69.70
15394;DHT22;7795;47.986;11.868;2023-03-23T06:24:32;10.20;69.70
15394;DHT22;7795;47.986;11.868;2023-03-23T06:26:58;10.20;70.00
15394;DHT22;7795;47.986;11.868;2023-03-23T06:29:25;10.30;70.10
15394;DHT22;7795;47.986;11.868;2023-03-23T06:31:54;10.30;70.10
15394;DHT22;7795;47.986;11.868;2023-03-23T06:34:21;10.40;70.30
15394;DHT22;7795;47.986;11.868;2023-03-23T06:36:47;10.40;70.10
15394;DHT22;7795;47.986;11.868;2023-03-23T06:39:13;10.50;70.20
15394;DHT22;7795;47.986;11.868;2023-03-23T06:41:40;10.50;70.20
15394;DHT22;7795;47.986;11.868;2023-03-23T06:44:06;10.60;70.40
15394;DHT22;7795;47.986;11.868;2023-03-23T06:46:34;10.60;70.50
15394;DHT22;7795;47.986;11.868;2023-03-23T06:49:00;10.70;70.50
15394;DHT22;7795;47.986;11.868;2023-03-23T06:51:26;10.70;70.50
15394;DHT22;7795;47.986;11.868;2023-03-23T06:53:52;10.80;70.80
15394;DHT22;7795;47.986;11.868;2023-03-23T06:56:24;10.80;70.80
15394;DHT22;7795;47.986;11.868;2023-03-23T06:58:52;10.90;71.10
15394;DHT22;7795;47.986;11.868;2023-03-23T07:01:18;10.90;70.80
15394;DHT22;7795;47.986;11.868;2023-03-23T07:03:44;11.00;70.80
15394;DHT22;7795;47.986;11.868;2023-03-23T07:06:10;11.00;70.70
15394;DHT22;7795;47.986;11.868;2023-03-23T07:08:36;11.10;70.80
15394;DHT22;7795;47.986;11.868;2023-03-23T07:11:03;11.10;70.80
15394;DHT22;7795;47.986;11.868;2023-03-23T07:13:29;11.20;71.00
15394;DHT22;7795;47.986;11.868;2023-03-23T07:15:56;11.20;70.90
15394;DHT22;7795;47.986;11.868;2023-03-23T07:18:22;11.30;71.10
15394;DHT22;7795;47.986;11.868;2023-03-23T07:20:48;11.40;71.00
15394;DHT22;7795;47.986;11.868;2023-03-23T07:23:15;11.50;71.00
15394;DHT22;7795;47.986;11.868;2023-03-23T07:25:43;11.50;71.00
15394;DHT22;7795;47.986;11.868;2023-03-23T07:28:09;11.60;70.90
15394;DHT22;7795;47.986;11.868;2023-03-23T07:30:37;11.70;70.90
15394;DHT22;7795;47.986;11.868;2023-03-23T07:33:05;11.70;70.80
15394;DHT22;7795;47.986;11.868;2023-03-23T07:35:32;11.80;71.00
15394;DHT22;7795;47.986;11.868;2023-03-23T07:37:58;11.90;70.90
15394;DHT22;7795;47.986;11.868;2023-03-23T07:40:25;11.90;70.80
15394;DHT22;7795;47.986;11.868;2023-03-23T07:42:53;12.00;70.60
15394;DHT22;7795;47.986;11.868;2023-03-23T07:45:19;12.10;70.60
15394;DHT22;7795;47.986;11.868;2023-03-23T07:47:45;12.20;70.50
15394;DHT22;7795;47.986;11.868;2023-03-23T07:50:12;12.30;70.50
15394;DHT22;7795;47.986;11.868;2023-03-23T07:52:39;12.40;70.50
15394;DHT22;7795;47.986;11.868;2023-03-23T07:55:08;12.50;70.30
15394;DHT22;7795;47.986;11.868;2023-03-23T07:57:34;12.60;70.20
15394;DHT22;7795;47.986;11.868;2023-03-23T08:00:00;12.70;70.80
15394;DHT22;7795;47.986;11.868;2023-03-23T08:02:28;12.80;70.00
15394;DHT22;7795;47.986;11.868;2023-03-23T08:04:57;12.90;69.90
15394;DHT22;7795;47.986;11.868;2023-03-23T08:07:27;13.00;69.70
15394;DHT22;7795;47.986;11.868;2023-03-23T08:09:53;13.10;69.80
15394;DHT22;7795;47.986;11.868;2023-03-23T08:12:19;13.20;69.70
15394;DHT22;7795;47.986;11.868;2023-03-23T08:14:47;13.40;69.70
15394;DHT22;7795;47.986;11.868;2023-03-23T08:17:13;13.50;69.50
15394;DHT22;7795;47.986;11.868;2023-03-23T08:19:42;13.60;69.40
15394;DHT22;7795;47.986;11.868;2023-03-23T08:22:08;13.70;69.30
15394;DHT22;7795;47.986;11.868;2023-03-23T08:24:36;13.80;68.90
15394;DHT22;7795;47.986;11.868;2023-03-23T08:27:02;13.90;68.70
15394;DHT22;7795;47.986;11.868;2023-03-23T08:29:28;14.00;68.50
15394;DHT22;7795;47.986;11.868;2023-03-23T08:31:56;14.10;68.40
15394;DHT22;7795;47.986;11.868;2023-03-23T08:34:23;14.30;68.20
15394;DHT22;7795;47.986;11.868;2023-03-23T08:36:49;14.30;68.00
15394;DHT22;7795;47.986;11.868;2023-03-23T08:39:17;14.50;67.90
15394;DHT22;7795;47.986;11.868;2023-03-23T08:41:45;14.50;67.70
15394;DHT22;7795;47.986;11.868;2023-03-23T08:44:11;14.60;67.50
15394;DHT22;7795;47.986;11.868;2023-03-23T08:46:38;14.80;67.50
15394;DHT22;7795;47.986;11.868;2023-03-23T08:49:04;14.90;67.50
15394;DHT22;7795;47.986;11.868;2023-03-23T08:51:31;15.00;67.50
15394;DHT22;7795;47.986;11.868;2023-03-23T08:53:57;15.10;67.40
15394;DHT22;7795;47.986;11.868;2023-03-23T08:56:23;15.30;67.20
15394;DHT22;7795;47.986;11.868;2023-03-23T08:58:53;15.40;67.10
15394;DHT22;7795;47.986;11.868;2023-03-23T09:01:22;15.50;66.70
15394;DHT22;7795;47.986;11.868;2023-03-23T09:03:48;15.70;66.80
15394;DHT22;7795;47.986;11.868;2023-03-23T09:06:16;15.80;66.60
15394;DHT22;7795;47.986;11.868;2023-03-23T09:08:48;15.90;66.60
15394;DHT22;7795;47.986;11.868;2023-03-23T09:11:14;16.00;66.40
15394;DHT22;7795;47.986;11.868;2023-03-23T09:13:40;16.10;66.30
15394;DHT22;7795;47.986;11.868;2023-03-23T09:16:08;16.20;66.00
15394;DHT22;7795;47.986;11.868;2023-03-23T09:18:36;16.30;65.80
15394;DHT22;7795;47.986;11.868;2023-03-23T09:21:03;16.40;65.60
15394;DHT22;7795;47.986;11.868;2023-03-23T09:23:29;16.50;65.60
15394;DHT22;7795;47.986;11.868;2023-03-23T09:25:55;16.60;65.30
15394;DHT22;7795;47.986;11.868;2023-03-23T09:28:23;16.60;65.10
15394;DHT22;7795;47.986;11.868;2023-03-23T09:30:49;16.80;64.80
15394;DHT22;7795;47.986;11.868;2023-03-23T09:33:18;16.80;64.70
15394;DHT22;7795;47.986;11.868;2023-03-23T09:35:44;16.90;64.40
15394;DHT22;7795;47.986;11.868;2023-03-23T09:38:10;17.00;64.40
15394;DHT22;7795;47.986;11.868;2023-03-23T09:40:45;17.00;64.30
15394;DHT22;7795;47.986;11.868;2023-03-23T09:43:34;17.10;64.00
15394;DHT22;7795;47.986;11.868;2023-03-23T09:46:16;17.20;63.80
15394;DHT22;7795;47.986;11.868;2023-03-23T09:48:51;17.30;63.70
15394;DHT22;7795;47.986;11.868;2023-03-23T09:51:35;17.30;63.50
15394;DHT22;7795;47.986;11.868;2023-03-23T09:54:09;17.40;63.40
15394;DHT22;7795;47.986;11.868;2023-03-23T09:56:36;17.40;63.30
15394;DHT22;7795;47.986;11.868;2023-03-23T09:59:09;17.50;63.20
15394;DHT22;7795;47.986;11.868;2023-03-23T10:01:40;17.60;63.00
15394;DHT22;7795;47.986;11.868;2023-03-23T10:04:15;17.60;63.00
15394;DHT22;7795;47.986;11.868;2023-03-23T10:06:45;17.70;62.80
15394;DHT22;7795;47.986;11.868;2023-03-23T10:09:17;17.70;62.80
15394;DHT22;7795;47.986;11.868;2023-03-23T10:11:54;17.80;62.90
15394;DHT22;7795;47.986;11.868;2023-03-23T10:14:31;17.90;62.60
15394;DHT22;7795;47.986;11.868;2023-03-23T10:17:05;17.90;62.30
15394;DHT22;7795;47.986;11.868;2023-03-23T10:19:40;18.00;62.30
15394;DHT22;7795;47.986;11.868;2023-03-23T10:22:11;18.10;62.30
15394;DHT22;7795;47.986;11.868;2023-03-23T10:24:43;18.20;62.30
15394;DHT22;7795;47.986;11.868;2023-03-23T10:27:20;18.30;62.10
15394;DHT22;7795;47.986;11.868;2023-03-23T10:29:50;18.40;61.70
15394;DHT22;7795;47.986;11.868;2023-03-23T10:32:34;18.40;61.80
15394;DHT22;7795;47.986;11.868;2023-03-23T10:35:06;18.50;61.60
15394;DHT22;7795;47.986;11.868;2023-03-23T10:37:37;18.60;61.30
15394;DHT22;7795;47.986;11.868;2023-03-23T10:40:06;18.70;61.20
15394;DHT22;7795;47.986;11.868;2023-03-23T10:42:40;18.80;61.20
15394;DHT22;7795;47.986;11.868;2023-03-23T10:45:14;18.90;60.90
15394;DHT22;7795;47.986;11.868;2023-03-23T10:47:44;19.10;60.00
15394;DHT22;7795;47.986;11.868;2023-03-23T10:50:15;19.20;59.80
15394;DHT22;7795;47.986;11.868;2023-03-23T10:52:43;19.30;59.50
15394;DHT22;7795;47.986;11.868;2023-03-23T10:55:11;19.40;59.40
15394;DHT22;7795;47.986;11.868;2023-03-23T10:57:44;19.50;59.10
15394;DHT22;7795;47.986;11.868;2023-03-23T11:00:18;19.70;58.40
15394;DHT22;7795;47.986;11.868;2023-03-23T11:02:45;19.70;58.60
15394;DHT22;7795;47.986;11.868;2023-03-23T11:05:18;19.90;58.80
15394;DHT22;7795;47.986;11.868;2023-03-23T11:07:50;20.00;58.40
15394;DHT22;7795;47.986;11.868;2023-03-23T11:10:22;20.10;58.00
15394;DHT22;7795;47.986;11.868;2023-03-23T11:12:52;20.20;58.00
15394;DHT22;7795;47.986;11.868;2023-03-23T11:15:29;20.20;57.90
15394;DHT22;7795;47.986;11.868;2023-03-23T11:17:58;20.30;57.40
15394;DHT22;7795;47.986;11.868;2023-03-23T11:20:32;20.40;57.30
15394;DHT22;7795;47.986;11.868;2023-03-23T11:23:08;20.40;57.10
15394;DHT22;7795;47.986;11.868;2023-03-23T11:25:51;20.50;57.20
15394;DHT22;7795;47.986;11.868;2023-03-23T11:28:27;20.60;56.80
15394;DHT22;7795;47.986;11.868;2023-03-23T11:30:57;20.60;57.10
15394;DHT22;7795;47.986;11.868;2023-03-23T11:33:24;20.60;56.80
15394;DHT22;7795;47.986;11.868;2023-03-23T11:35:53;20.70;56.80
15394;DHT22;7795;47.986;11.868;2023-03-23T11:38:22;20.70;56.20
15394;DHT22;7795;47.986;11.868;2023-03-23T11:40:51;20.70;56.20
15394;DHT22;7795;47.986;11.868;2023-03-23T11:43:20;20.70;56.20
15394;DHT22;7795;47.986;11.868;2023-03-23T11:45:53;20.80;56.00
15394;DHT22;7795;47.986;11.868;2023-03-23T11:48:27;20.80;55.90
15394;DHT22;7795;47.986;11.868;2023-03-23T11:51:06;20.90;55.60
15394;DHT22;7795;47.986;11.868;2023-03-23T11:53:43;20.90;55.40
15394;DHT22;7795;47.986;11.868;2023-03-23T11:56:23;21.00;55.40
15394;DHT22;7795;47.986;11.868;2023-03-23T11:58:50;21.10;54.80
15394;DHT22;7795;47.986;11.868;2023-03-23T12:01:29;21.10;55.20
15394;DHT22;7795;47.986;11.868;2023-03-23T12:07:03;21.20;53.90
15394;DHT22;7795;47.986;11.868;2023-03-23T12:09:42;21.20;53.60
15394;DHT22;7795;47.986;11.868;2023-03-23T12:12:15;21.30;53.50
15394;DHT22;7795;47.986;11.868;2023-03-23T12:14:51;21.30;53.50
15394;DHT22;7795;47.986;11.868;2023-03-23T12:17:27;21.40;53.70
15394;DHT22;7795;47.986;11.868;2023-03-23T12:20:17;21.40;53.50
15394;DHT22;7795;47.986;11.868;2023-03-23T12:23:08;21.50;53.20
15394;DHT22;7795;47.986;11.868;2023-03-23T12:26:10;21.50;53.40
15394;DHT22;7795;47.986;11.868;2023-03-23T12:31:30;21.60;53.20
15394;DHT22;7795;47.986;11.868;2023-03-23T12:34:04;21.70;53.10
15394;DHT22;7795;47.986;11.868;2023-03-23T12:36:41;21.70;52.60
15394;DHT22;7795;47.986;11.868;2023-03-23T12:39:46;21.80;52.30
15394;DHT22;7795;47.986;11.868;2023-03-23T12:42:23;21.80;51.70
15394;DHT22;7795;47.986;11.868;2023-03-23T12:44:53;21.90;51.30
15394;DHT22;7795;47.986;11.868;2023-03-23T12:47:37;21.90;51.00
15394;DHT22;7795;47.986;11.868;2023-03-23T12:50:09;21.90;50.00
15394;DHT22;7795;47.986;11.868;2023-03-23T12:52:46;22.00;50.70
15394;DHT22;7795;47.986;11.868;2023-03-23T12:55:19;22.00;50.30
15394;DHT22;7795;47.986;11.868;2023-03-23T12:57:51;22.00;49.90
15394;DHT22;7795;47.986;11.868;2023-03-23T13:00:22;22.00;49.90
15394;DHT22;7795;47.986;11.868;2023-03-23T13:02:52;22.10;49.60
15394;DHT22;7795;47.986;11.868;2023-03-23T13:05:32;22.10;49.40
15394;DHT22;7795;47.986;11.868;2023-03-23T13:08:03;22.10;48.50
15394;DHT22;7795;47.986;11.868;2023-03-23T13:10:34;22.10;48.90
15394;DHT22;7795;47.986;11.868;2023-03-23T13:13:02;22.10;48.90
15394;DHT22;7795;47.986;11.868;2023-03-23T13:15:34;22.10;49.20
15394;DHT22;7795;47.986;11.868;2023-03-23T13:18:10;22.10;48.80
15394;DHT22;7795;47.986;11.868;2023-03-23T13:20:52;22.10;48.70
15394;DHT22;7795;47.986;11.868;2023-03-23T13:23:22;22.10;48.30
15394;DHT22;7795;47.986;11.868;2023-03-23T13:25:54;22.10;49.00
15394;DHT22;7795;47.986;11.868;2023-03-23T13:28:23;22.10;49.00
15394;DHT22;7795;47.986;11.868;2023-03-23T13:31:00;22.20;49.80
15394;DHT22;7795;47.986;11.868;2023-03-23T13:33:32;22.20;49.20
15394;DHT22;7795;47.986;11.868;2023-03-23T13:36:07;22.20;48.50
15394;DHT22;7795;47.986;11.868;2023-03-23T13:38:36;22.20;48.00
15394;DHT22;7795;47.986;11.868;2023-03-23T13:41:10;22.20;48.50
15394;DHT22;7795;47.986;11.868;2023-03-23T13:43:38;22.20;47.80
15394;DHT22;7795;47.986;11.868;2023-03-23T13:46:22;22.20;48.20
15394;DHT22;7795;47.986;11.868;2023-03-23T13:48:50;22.20;47.70
15394;DHT22;7795;47.986;11.868;2023-03-23T13:51:34;22.20;48.60
15394;DHT22;7795;47.986;11.868;2023-03-23T13:54:15;22.20;46.80
15394;DHT22;7795;47.986;11.868;2023-03-23T13:56:54;22.20;46.90
15394;DHT22;7795;47.986;11.868;2023-03-23T13:59:31;22.20;46.80
15394;DHT22;7795;47.986;11.868;2023-03-23T14:02:34;22.20;46.80
15394;DHT22;7795;47.986;11.868;2023-03-23T14:05:32;22.20;46.20
15394;DHT22;7795;47.986;11.868;2023-03-23T14:08:01;22.20;45.80
15394;DHT22;7795;47.986;11.868;2023-03-23T14:10:39;22.10;46.60
15394;DHT22;7795;47.986;11.868;2023-03-23T14:13:14;22.10;45.00
15394;DHT22;7795;47.986;11.868;2023-03-23T14:15:43;22.10;45.10
15394;DHT22;7795;47.986;11.868;2023-03-23T14:18:14;22.00;46.10
15394;DHT22;7795;47.986;11.868;2023-03-23T14:20:42;22.00;46.00
15394;DHT22;7795;47.986;11.868;2023-03-23T14:23:15;22.00;46.10
15394;DHT22;7795;47.986;11.868;2023-03-23T14:25:41;22.00;45.50
15394;DHT22;7795;47.986;11.868;2023-03-23T14:28:18;21.90;46.00
15394;DHT22;7795;47.986;11.868;2023-03-23T14:30:44;21.90;45.10
15394;DHT22;7795;47.986;11.868;2023-03-23T14:33:10;21.90;45.90
15394;DHT22;7795;47.986;11.868;2023-03-23T14:35:40;21.90;45.90
15394;DHT22;7795;47.986;11.868;2023-03-23T14:38:14;21.90;45.90
15394;DHT22;7795;47.986;11.868;2023-03-23T14:40:42;21.90;45.70
15394;DHT22;7795;47.986;11.868;2023-03-23T14:43:09;21.90;46.10
15394;DHT22;7795;47.986;11.868;2023-03-23T14:45:39;21.90;46.00
15394;DHT22;7795;47.986;11.868;2023-03-23T14:48:07;21.90;46.10
15394;DHT22;7795;47.986;11.868;2023-03-23T14:50:38;21.90;45.80
15394;DHT22;7795;47.986;11.868;2023-03-23T14:53:13;21.90;45.70
15394;DHT22;7795;47.986;11.868;2023-03-23T14:55:42;21.90;45.70
15394;DHT22;7795;47.986;11.868;2023-03-23T14:58:11;21.90;46.10
15394;DHT22;7795;47.986;11.868;2023-03-23T15:00:41;21.90;46.00
15394;DHT22;7795;47.986;11.868;2023-03-23T15:03:12;21.80;45.90
15394;DHT22;7795;47.986;11.868;2023-03-23T15:05:42;21.80;46.10
15394;DHT22;7795;47.986;11.868;2023-03-23T15:08:13;21.80;46.20
15394;DHT22;7795;47.986;11.868;2023-03-23T15:10:39;21.80;46.20
15394;DHT22;7795;47.986;11.868;2023-03-23T15:13:08;21.80;46.10
15394;DHT22;7795;47.986;11.868;2023-03-23T15:15:36;21.80;46.30
15394;DHT22;7795;47.986;11.868;2023-03-23T15:18:03;21.80;46.20
15394;DHT22;7795;47.986;11.868;2023-03-23T15:20:45;21.80;46.20
15394;DHT22;7795;47.986;11.868;2023-03-23T15:23:14;21.70;46.10
15394;DHT22;7795;47.986;11.868;2023-03-23T15:25:47;21.70;46.30
15394;DHT22;7795;47.986;11.868;2023-03-23T15:28:17;21.70;46.10
15394;DHT22;7795;47.986;11.868;2023-03-23T15:30:51;21.70;45.80
15394;DHT22;7795;47.986;11.868;2023-03-23T15:33:19;21.70;45.60
15394;DHT22;7795;47.986;11.868;2023-03-23T15:35:52;21.60;45.70
15394;DHT22;7795;47.986;11.868;2023-03-23T15:38:21;21.50;45.90
15394;DHT22;7795;47.986;11.868;2023-03-23T15:40:50;21.50;45.90
15394;DHT22;7795;47.986;11.868;2023-03-23T15:43:17;21.40;46.10
15394;DHT22;7795;47.986;11.868;2023-03-23T15:45:56;21.30;46.10
15394;DHT22;7795;47.986;11.868;2023-03-23T15:48:27;21.30;46.00
15394;DHT22;7795;47.986;11.868;2023-03-23T15:50:54;21.30;46.20
15394;DHT22;7795;47.986;11.868;2023-03-23T15:53:29;21.30;46.40
15394;DHT22;7795;47.986;11.868;2023-03-23T15:55:58;21.20;46.20
15394;DHT22;7795;47.986;11.868;2023-03-23T15:58:24;21.20;46.50